Poplar, MT (59255)

2:01 AM MDT on September 03, 2014 (GMT -0600)
East of Macon | Change Station
CLOSE
Current Station
Personal Weather Station
Location: Wolf Point, MT
Elevation: 1987 ft
Nearby Weather Stations

Elev 1987 ft 48.11 °N, 105.47 °W | Updated 40 seconds ago

Clear
Clear
49.2 °F
Feels Like 49 °F
N
1.0
Wind Variable Wind from ENE
Gusts 1.0 mph

Today
High -- | Low -- °F
--% Chance of Precip.
Yesterday
High -- | Low -- °F
Precip. -- in
6:21 AM 7:37 PM
First Quarter, 60% visible
Pressure 29.68 in
Visibility 10.0 miles
Clouds Clear
Windchill 49 °F
Dew Point 46 °F
Humidity 89%
Rainfall 0.00 in
Snow Depth Not available.
UV 0 out of 12
Pollen 8.30 out of 12
Air Quality Not available.
Flu Activity Not available.
METAR KOLF 030753Z AUTO 00000KT 10SM CLR 12/07 A2968 RMK AO2 SLP049 T01170072

More Conditions Fewer Conditions

Pressure 29.68 in
Visibility 10.0 miles
Clouds Clear
Windchill 49 °F
Dew Point 46 °F
Humidity 89%
Rainfall 0.00 in
Snow Depth Not available.
UV 0 out of 12
Pollen 8.30 out of 12
Air Quality Not available.
Flu Activity Not available.
METAR KOLF 030753Z AUTO 00000KT 10SM CLR 12/07 A2968 RMK AO2 SLP049 T01170072

More Conditions Fewer Conditions

10-Day Weather Forecast

Almanac

Astronomy

Sep. 03, 2014 Rise Set
Actual Time 6:21 AM MDT 7:37 PM MDT
Civil Twilight 5:49 AM MDT 8:09 PM MDT
Nautical Twilight 5:10 AM MDT 8:48 PM MDT
Astronomical Twilight 4:28 AM MDT 9:29 PM MDT
Moon 3:37 PM MDT 12:03 AM MDT
Length of Visible Light 14h 20m
Length of Day
13h 16m
Tomorrow will be 3m 25s shorter.
First Quarter, 60% of the Moon is Illuminated
Today
First Quarter
Sep 8
Full
Sep 15
Last Quarter
Sep 24
New
Oct 1
First Quarter

Today's Extremes

State Highs State Lows

Community

WunderPhotos

Upload Photos

1,749,902 photos uploaded!

Nearby

Snow Depth

Station Depth Elevation
Crystal Lake 0 in 6050 ft
Spur Park 0 in 8100 ft
Deadman Creek 0 in 6450 ft
Onion Park 0 in 7410 ft
Stringer Creek 0 in 6550 ft

Earthquake Activity

City Distance Mag. Time & Date
No recent earthquake activity has been reported nearby.
Minimum magnitude displayed is 2.5.

Coastal Water Temperatures

Place Temperature
No Stations Reporting

Nearby Weather Stations